createdAt,value
2023-05-12T00:01:31.120Z,390.00
2023-05-12T00:06:30.396Z,380.90
2023-05-12T00:11:29.662Z,414.20
2023-05-12T00:16:28.938Z,405.70
2023-05-12T00:21:28.197Z,400.00
2023-05-12T00:26:28.477Z,399.10
2023-05-12T00:31:26.747Z,371.10
2023-05-12T00:36:25.969Z,401.60
2023-05-12T00:41:25.209Z,370.00
2023-05-12T00:46:25.486Z,370.00
2023-05-12T00:51:23.694Z,370.00
2023-05-12T00:56:22.940Z,370.00
2023-05-12T01:01:22.199Z,370.00
2023-05-12T01:06:21.420Z,370.00
2023-05-12T01:11:21.641Z,370.00
2023-05-12T01:16:19.846Z,370.00
2023-05-12T01:21:19.110Z,393.20
2023-05-12T01:26:19.354Z,396.80
2023-05-12T01:31:21.151Z,405.30
2023-05-12T01:36:17.730Z,425.20
2023-05-12T01:41:15.980Z,423.50
2023-05-12T01:46:15.280Z,391.40
2023-05-12T01:51:13.504Z,384.60
2023-05-12T01:56:14.776Z,407.30
2023-05-12T02:01:13.061Z,407.40
2023-05-12T02:06:13.304Z,433.00
2023-05-12T02:11:12.565Z,433.00
2023-05-12T02:16:10.843Z,443.90
2023-05-12T02:21:10.145Z,428.40
2023-05-12T02:26:09.413Z,465.90
2023-05-12T02:31:09.684Z,402.10
2023-05-12T02:36:08.959Z,425.90
2023-05-12T02:41:08.233Z,425.90
2023-05-12T02:46:07.506Z,425.90
2023-05-12T02:51:06.727Z,425.90
2023-05-12T02:56:05.939Z,425.90
2023-05-12T03:01:10.569Z,425.90
2023-05-12T03:06:05.436Z,425.90
2023-05-12T03:11:02.706Z,427.60
2023-05-12T03:16:05.984Z,427.20
2023-05-12T03:21:01.219Z,427.00
2023-05-12T03:26:02.509Z,424.80
2023-05-12T03:30:59.977Z,424.80
2023-05-12T03:35:59.079Z,414.60
2023-05-12T03:40:59.329Z,400.40
2023-05-12T03:45:57.619Z,412.30
2023-05-12T03:50:55.839Z,426.10
2023-05-12T03:55:57.090Z,396.10
2023-05-12T04:00:56.316Z,409.70
2023-05-12T04:05:54.706Z,409.70
2023-05-12T04:10:52.764Z,407.10
2023-05-12T04:15:57.192Z,404.50
2023-05-12T04:20:52.193Z,398.60
2023-05-12T04:25:51.424Z,413.80
2023-05-12T04:30:51.675Z,421.60
2023-05-12T04:35:49.928Z,425.00
2023-05-12T04:40:49.183Z,423.30
2023-05-12T04:45:49.488Z,423.30
2023-05-12T04:50:47.687Z,408.00
2023-05-12T04:55:47.918Z,399.50
2023-05-12T05:00:48.148Z,415.30
2023-05-12T05:05:45.368Z,358.60
2023-05-12T05:10:44.620Z,359.10
2023-05-12T05:15:43.888Z,363.30
2023-05-12T05:20:45.283Z,363.30
2023-05-12T05:25:43.256Z,363.30
2023-05-12T05:30:41.529Z,363.30
2023-05-12T05:35:40.791Z,363.30
2023-05-12T05:40:52.334Z,363.30
2023-05-12T05:45:40.389Z,363.30
2023-05-12T05:50:38.645Z,363.30
2023-05-12T05:55:37.915Z,363.30
2023-05-12T06:00:39.180Z,363.30
2023-05-12T06:05:36.324Z,363.30
2023-05-12T06:10:35.633Z,363.30
2023-05-12T06:15:35.912Z,363.30
2023-05-12T06:20:34.200Z,363.30
2023-05-12T06:25:33.528Z,363.30
2023-05-12T06:30:34.827Z,363.30
2023-05-12T06:35:32.115Z,363.30
2023-05-12T06:40:31.409Z,363.30
2023-05-12T06:45:31.729Z,363.30
2023-05-12T06:50:31.021Z,363.30
2023-05-12T06:55:29.318Z,363.30
2023-05-12T07:00:28.636Z,363.30
2023-05-12T07:05:27.962Z,363.30
2023-05-12T07:10:28.251Z,363.30
2023-05-12T07:15:26.531Z,363.30
2023-05-12T07:20:25.900Z,363.30
2023-05-12T07:25:25.145Z,363.30
2023-05-12T07:30:24.247Z,363.30
2023-05-12T07:35:25.576Z,363.30
2023-05-12T07:40:23.872Z,363.30
2023-05-12T07:45:22.220Z,363.30
2023-05-12T07:50:21.511Z,363.30
2023-05-12T07:55:21.148Z,363.30
2023-05-12T08:00:19.083Z,363.30
2023-05-12T08:05:20.630Z,363.30
2023-05-12T08:10:19.634Z,363.30
2023-05-12T08:15:19.100Z,363.30
2023-05-12T08:20:19.287Z,363.30
2023-05-12T08:25:16.591Z,363.30
2023-05-12T08:30:15.870Z,363.30
2023-05-12T08:35:15.192Z,363.30
2023-05-12T08:40:14.529Z,363.30
2023-05-12T08:45:14.831Z,363.30
2023-05-12T08:50:13.146Z,363.30
2023-05-12T08:55:14.453Z,363.30
2023-05-12T09:00:11.761Z,363.30
2023-05-12T09:05:12.101Z,363.30
2023-05-12T09:10:19.657Z,363.30
2023-05-12T09:15:09.594Z,363.30
2023-05-12T09:20:17.696Z,363.30
2023-05-12T09:25:07.893Z,363.30
2023-05-12T09:30:07.233Z,363.30
2023-05-12T09:35:06.545Z,363.30
2023-05-12T09:40:06.900Z,363.30
2023-05-12T09:45:06.028Z,363.30
2023-05-12T09:50:05.407Z,363.30
2023-05-12T09:55:04.520Z,363.30
2023-05-12T10:00:06.013Z,363.30
2023-05-12T10:05:03.223Z,363.30
2023-05-12T10:10:01.380Z,363.30
2023-05-12T10:15:01.599Z,363.30
2023-05-12T10:20:00.882Z,363.30
2023-05-12T10:24:59.196Z,363.30
2023-05-12T10:29:58.508Z,363.30
2023-05-12T10:34:59.229Z,363.30
2023-05-12T10:39:59.133Z,363.30
2023-05-12T10:44:56.582Z,363.30
2023-05-12T10:49:55.699Z,363.30
2023-05-12T10:54:55.067Z,363.30
2023-05-12T10:59:55.433Z,363.30
2023-05-12T11:04:53.547Z,363.30
2023-05-12T11:09:57.671Z,363.30
2023-05-12T11:14:52.798Z,373.60
2023-05-12T11:19:53.047Z,390.60
2023-05-12T11:24:50.309Z,403.80
2023-05-12T11:29:49.554Z,406.70
2023-05-12T11:34:48.801Z,403.20
2023-05-12T11:39:48.054Z,393.00
2023-05-12T11:44:48.407Z,436.00
2023-05-12T11:49:46.553Z,428.90
2023-05-12T11:54:45.797Z,448.40
2023-05-12T11:59:46.040Z,348.70
2023-05-12T12:04:47.437Z,323.60
2023-05-12T12:09:44.466Z,399.50
2023-05-12T12:14:42.733Z,406.10
2023-05-12T12:19:42.986Z,384.40
2023-05-12T12:24:42.221Z,402.80
2023-05-12T12:29:40.424Z,408.90
2023-05-12T12:34:40.667Z,431.20
2023-05-12T12:39:39.905Z,331.10
2023-05-12T12:44:40.203Z,442.80
2023-05-12T12:49:37.426Z,394.10
2023-05-12T12:54:37.705Z,387.80
2023-05-12T12:59:36.925Z,371.60
2023-05-12T13:04:36.175Z,439.70
2023-05-12T13:09:34.421Z,383.60
2023-05-12T13:14:34.681Z,430.90
2023-05-12T13:19:36.509Z,403.70
2023-05-12T13:24:32.233Z,402.30
2023-05-12T13:29:31.479Z,411.50
2023-05-12T13:34:30.729Z,411.80
2023-05-12T13:39:29.974Z,422.90
2023-05-12T13:44:29.241Z,400.90
2023-05-12T13:49:29.493Z,418.00
2023-05-12T13:54:27.745Z,430.20
2023-05-12T13:59:26.983Z,425.20
2023-05-12T14:04:25.201Z,391.90
2023-05-12T14:09:25.455Z,311.10
2023-05-12T14:14:26.719Z,416.80
2023-05-12T14:19:23.971Z,399.30
2023-05-12T14:24:24.197Z,396.50
2023-05-12T14:29:23.446Z,402.50
2023-05-12T14:34:21.700Z,387.30
2023-05-12T14:39:20.965Z,425.80
2023-05-12T14:44:20.246Z,409.20
2023-05-12T14:49:19.516Z,399.60
2023-05-12T14:54:25.133Z,407.20
2023-05-12T14:59:18.086Z,404.30
2023-05-12T15:04:18.388Z,435.90
2023-05-12T15:09:17.621Z,368.60
2023-05-12T15:14:15.837Z,407.20
2023-05-12T15:19:16.149Z,461.50
2023-05-12T15:24:15.340Z,478.60
2023-05-12T15:29:14.556Z,414.70
2023-05-12T15:34:13.768Z,429.10
2023-05-12T15:39:12.068Z,390.30
2023-05-12T15:44:11.339Z,415.20
2023-05-12T15:49:10.546Z,430.60
2023-05-12T15:54:10.806Z,466.10
2023-05-12T15:59:11.123Z,429.20
2023-05-12T16:04:08.411Z,403.60
2023-05-12T16:09:07.843Z,414.70
2023-05-12T16:14:06.922Z,406.50
2023-05-12T16:19:07.275Z,413.40
2023-05-12T16:24:06.270Z,424.40
2023-05-12T16:29:03.575Z,408.10
2023-05-12T16:34:04.870Z,418.80
2023-05-12T16:39:03.151Z,418.00
2023-05-12T16:44:02.637Z,413.00
2023-05-12T16:49:02.842Z,400.80
2023-05-12T16:54:00.877Z,379.90
2023-05-12T16:59:01.290Z,421.00
2023-05-12T17:04:00.522Z,417.20
2023-05-12T17:08:59.646Z,417.60
2023-05-12T17:13:59.222Z,417.60
2023-05-12T17:23:56.400Z,375.30
2023-05-12T17:28:56.751Z,422.40
2023-05-12T17:33:55.844Z,395.40
2023-05-12T17:38:54.020Z,365.60
2023-05-12T17:43:54.541Z,356.30
2023-05-12T17:48:52.373Z,356.30
2023-05-12T17:53:51.610Z,357.10
2023-05-12T17:58:50.929Z,357.10
2023-05-12T18:03:50.209Z,357.10
2023-05-12T18:08:51.441Z,357.10
2023-05-12T18:13:49.598Z,357.10
2023-05-12T18:18:47.880Z,357.10
2023-05-12T18:23:47.938Z,356.90
2023-05-12T18:28:46.145Z,356.20
2023-05-12T18:33:46.412Z,356.20
2023-05-12T18:38:44.688Z,356.20
2023-05-12T18:43:44.973Z,356.20
2023-05-12T18:48:42.283Z,356.20
2023-05-12T18:53:42.310Z,356.20
2023-05-12T18:58:41.615Z,356.20
2023-05-12T19:03:41.948Z,356.20
2023-05-12T19:08:40.252Z,356.20
2023-05-12T19:13:39.524Z,356.20
2023-05-12T19:18:39.977Z,356.20
2023-05-12T19:23:38.005Z,356.20
2023-05-12T19:28:37.222Z,356.20
2023-05-12T19:33:37.491Z,356.20
2023-05-12T19:38:35.725Z,356.20
2023-05-12T19:43:37.037Z,356.20
2023-05-12T19:48:34.268Z,356.20
2023-05-12T19:53:34.486Z,356.20
2023-05-12T19:58:32.682Z,356.20
2023-05-12T20:03:31.982Z,356.20
2023-05-12T20:08:31.196Z,356.20
2023-05-12T20:13:30.382Z,356.20
2023-05-12T20:18:29.554Z,356.20
2023-05-12T20:23:30.847Z,356.20
2023-05-12T20:28:30.110Z,356.20
2023-05-12T20:33:27.317Z,356.20
2023-05-12T20:38:25.530Z,356.20
2023-05-12T20:43:25.823Z,356.20
2023-05-12T20:48:25.263Z,356.20
2023-05-12T20:53:26.176Z,356.20
2023-05-12T20:58:23.351Z,356.20
2023-05-12T21:03:23.292Z,356.20
2023-05-12T21:08:22.762Z,356.20
2023-05-12T21:13:20.856Z,356.20
2023-05-12T21:18:20.173Z,356.20
2023-05-12T21:23:20.503Z,356.20
2023-05-12T21:28:19.218Z,356.20
2023-05-12T21:33:18.959Z,356.20
2023-05-12T21:38:17.294Z,356.20
2023-05-12T21:43:16.572Z,356.20
2023-05-12T21:48:16.928Z,356.20
2023-05-12T21:53:15.235Z,356.20
2023-05-12T21:58:14.513Z,356.20
2023-05-12T22:03:13.924Z,356.20
2023-05-12T22:08:14.275Z,356.20
2023-05-12T22:13:13.353Z,356.20
2023-05-12T22:18:11.633Z,356.20
2023-05-12T22:23:10.901Z,356.20
2023-05-12T22:28:11.235Z,356.20
2023-05-12T22:33:09.538Z,356.20
2023-05-12T22:38:08.653Z,356.20
2023-05-12T22:43:11.067Z,356.20
2023-05-12T22:48:08.366Z,356.20
2023-05-12T22:53:07.349Z,356.20
2023-05-12T22:58:07.710Z,356.20
2023-05-12T23:03:04.843Z,356.20
2023-05-12T23:08:04.211Z,356.20
2023-05-12T23:13:04.426Z,356.20
2023-05-12T23:18:02.608Z,356.20
2023-05-12T23:23:01.719Z,356.20
2023-05-12T23:28:02.124Z,356.20
2023-05-12T23:33:00.353Z,356.20
2023-05-12T23:37:59.481Z,356.20
2023-05-12T23:42:59.706Z,356.20
2023-05-12T23:47:57.870Z,356.20
2023-05-12T23:52:58.043Z,356.20
2023-05-12T23:57:56.354Z,356.20
